createdAt,value
2022-10-06T00:00:49.091Z,99070.47
2022-10-06T00:03:15.823Z,99067.81
2022-10-06T00:05:43.234Z,99070.97
2022-10-06T00:08:10.373Z,99078.78
2022-10-06T00:10:37.667Z,99078.94
2022-10-06T00:13:04.335Z,99087.75
2022-10-06T00:15:32.221Z,99083.44
2022-10-06T00:17:59.407Z,99083.94
2022-10-06T00:20:26.826Z,99084.78
2022-10-06T00:22:53.468Z,99083.63
2022-10-06T00:25:21.967Z,99086.25
2022-10-06T00:27:50.597Z,99093.44
2022-10-06T00:30:20.877Z,99091.78
2022-10-06T00:33:05.976Z,99099.44
2022-10-06T00:35:34.416Z,99094.44
2022-10-06T00:38:01.806Z,99100.13
2022-10-06T00:40:29.030Z,99112.78
2022-10-06T00:43:01.720Z,99116.09
2022-10-06T00:45:46.481Z,99107.78
2022-10-06T00:48:19.649Z,99114.09
2022-10-06T00:50:46.428Z,99121.44
2022-10-06T00:53:13.985Z,99127.13
2022-10-06T00:55:40.729Z,99126.56
2022-10-06T00:58:07.830Z,99127.25
2022-10-06T01:00:35.169Z,99129.41
2022-10-06T01:03:18.866Z,99126.91
2022-10-06T01:05:48.572Z,99134.75
2022-10-06T01:08:15.392Z,99125.06
2022-10-06T01:10:42.860Z,99129.56
2022-10-06T01:13:11.213Z,99130.28
2022-10-06T01:15:44.695Z,99133.47
2022-10-06T01:18:13.406Z,99137.81
2022-10-06T01:20:45.928Z,99136.44
2022-10-06T01:23:13.117Z,99134.56
2022-10-06T01:25:39.728Z,99140.22
2022-10-06T01:28:08.042Z,99135.38
2022-10-06T01:30:46.097Z,99137.69
2022-10-06T01:33:13.913Z,99143.66
2022-10-06T01:35:40.917Z,99150.63
2022-10-06T01:38:07.633Z,99152.66
2022-10-06T01:40:35.114Z,99151.47
2022-10-06T01:43:02.105Z,99151.63
2022-10-06T01:45:29.332Z,99158.56
2022-10-06T01:47:56.179Z,99164.06
2022-10-06T01:50:23.171Z,99166.19
2022-10-06T01:52:49.872Z,99167.19
2022-10-06T01:55:17.359Z,99174.66
2022-10-06T01:57:44.196Z,99178.16
2022-10-06T02:00:12.361Z,99179.44
2022-10-06T02:02:42.420Z,99176.09
2022-10-06T02:05:09.269Z,99170.78
2022-10-06T02:07:38.856Z,99168.81
2022-10-06T02:10:06.525Z,99176.44
2022-10-06T02:12:35.118Z,99175.75
2022-10-06T02:15:02.038Z,99173.59
2022-10-06T02:17:29.501Z,99167.91
2022-10-06T02:19:56.473Z,99179.47
2022-10-06T02:22:23.067Z,99167.34
2022-10-06T02:24:50.061Z,99181.97
2022-10-06T02:27:17.124Z,99183.16
2022-10-06T02:29:45.109Z,99190.88
2022-10-06T02:32:13.522Z,99180.41
2022-10-06T02:34:40.182Z,99191.38
2022-10-06T02:37:07.398Z,99197.66
2022-10-06T02:39:34.095Z,99196.69
2022-10-06T02:42:01.598Z,99202.25
2022-10-06T02:44:28.315Z,99211.59
2022-10-06T02:46:56.458Z,99212.44
2022-10-06T02:49:23.203Z,99230.72
2022-10-06T02:51:50.333Z,99227.56
2022-10-06T02:54:16.985Z,99230.38
2022-10-06T02:56:43.575Z,99235.00
2022-10-06T02:59:10.272Z,99230.69
2022-10-06T03:01:39.429Z,99235.16
2022-10-06T03:04:12.130Z,99227.66
2022-10-06T03:06:41.623Z,99246.44
2022-10-06T03:09:13.736Z,99244.06
2022-10-06T03:11:42.949Z,99246.19
2022-10-06T03:14:15.670Z,99252.19
2022-10-06T03:16:46.007Z,99255.63
2022-10-06T03:19:21.135Z,99264.34
2022-10-06T03:21:47.905Z,99267.19
2022-10-06T03:24:15.272Z,99276.38
2022-10-06T03:26:46.300Z,99281.25
2022-10-06T03:29:16.167Z,99293.75
2022-10-06T03:31:47.130Z,99294.66
2022-10-06T03:34:15.189Z,99301.03
2022-10-06T03:36:44.140Z,99296.44
2022-10-06T03:39:11.684Z,99303.09
2022-10-06T03:41:39.646Z,99298.44
2022-10-06T03:44:07.883Z,99302.44
2022-10-06T03:46:37.418Z,99297.31
2022-10-06T03:49:06.955Z,99310.75
2022-10-06T03:51:36.491Z,99317.00
2022-10-06T03:54:03.578Z,99337.06
2022-10-06T03:56:39.408Z,99330.78
2022-10-06T03:59:08.347Z,99332.53
2022-10-06T04:01:37.804Z,99341.44
2022-10-06T04:04:07.207Z,99344.28
2022-10-06T04:06:37.749Z,99347.69
2022-10-06T04:09:11.305Z,99342.06
2022-10-06T04:11:42.019Z,99345.25
2022-10-06T04:14:10.964Z,99347.13
2022-10-06T04:16:46.922Z,99356.16
2022-10-06T04:19:17.267Z,99362.09
2022-10-06T04:21:48.132Z,99364.84
2022-10-06T04:24:18.925Z,99358.16
2022-10-06T04:26:51.068Z,99357.16
2022-10-06T04:29:18.850Z,99359.69
2022-10-06T04:31:50.663Z,99359.00
2022-10-06T04:34:43.452Z,99362.69
2022-10-06T04:37:10.817Z,99365.03
2022-10-06T04:39:38.660Z,99368.72
2022-10-06T04:42:07.444Z,99372.06
2022-10-06T04:44:34.149Z,99372.88
2022-10-06T04:47:02.836Z,99374.53
2022-10-06T04:49:29.782Z,99377.22
2022-10-06T04:51:56.942Z,99376.38
2022-10-06T04:54:24.458Z,99378.38
2022-10-06T04:56:56.713Z,99391.38
2022-10-06T04:59:44.712Z,99387.88
2022-10-06T05:02:14.577Z,99390.41
2022-10-06T05:04:42.526Z,99393.22
2022-10-06T05:07:09.949Z,99407.53
2022-10-06T05:09:36.934Z,99405.56
2022-10-06T05:12:03.823Z,99409.56
2022-10-06T05:14:33.491Z,99411.88
2022-10-06T05:17:01.010Z,99409.06
2022-10-06T05:19:29.520Z,99416.59
2022-10-06T05:21:56.725Z,99420.25
2022-10-06T05:24:26.406Z,99417.75
2022-10-06T05:26:56.298Z,99424.25
2022-10-06T05:29:25.068Z,99426.59
2022-10-06T05:31:53.474Z,99432.06
2022-10-06T05:34:21.435Z,99431.22
2022-10-06T05:36:48.460Z,99438.06
2022-10-06T05:39:15.108Z,99442.22
2022-10-06T05:41:48.728Z,99433.72
2022-10-06T05:44:15.365Z,99443.72
2022-10-06T05:46:43.708Z,99440.72
2022-10-06T05:49:12.750Z,99446.41
2022-10-06T05:51:44.362Z,99443.56
2022-10-06T05:54:16.131Z,99449.56
2022-10-06T05:56:42.905Z,99454.41
2022-10-06T05:59:09.524Z,99463.75
2022-10-06T06:01:41.962Z,99458.59
2022-10-06T06:04:16.795Z,99472.91
2022-10-06T06:06:48.903Z,99466.38
2022-10-06T06:09:21.747Z,99476.63
2022-10-06T06:11:53.067Z,99478.81
2022-10-06T06:14:45.719Z,99474.72
2022-10-06T06:17:19.792Z,99474.38
2022-10-06T06:19:46.532Z,99486.91
2022-10-06T06:22:13.403Z,99488.69
2022-10-06T06:24:42.839Z,99494.22
2022-10-06T06:27:10.235Z,99497.09
2022-10-06T06:29:37.376Z,99499.94
2022-10-06T06:32:04.149Z,99497.00
2022-10-06T06:34:31.187Z,99504.63
2022-10-06T06:37:03.642Z,99510.59
2022-10-06T06:39:34.123Z,99517.50
2022-10-06T06:42:02.207Z,99524.88
2022-10-06T06:44:54.938Z,99527.88
2022-10-06T06:47:31.623Z,99521.75
2022-10-06T06:50:00.309Z,99523.09
2022-10-06T06:52:28.920Z,99538.16
2022-10-06T06:54:57.208Z,99544.50
2022-10-06T06:57:24.719Z,99544.91
2022-10-06T06:59:53.037Z,99556.06
2022-10-06T07:02:20.027Z,99558.06
2022-10-06T07:04:48.233Z,99563.94
2022-10-06T07:07:17.240Z,99569.13
2022-10-06T07:09:43.825Z,99576.63
2022-10-06T07:12:12.310Z,99583.16
2022-10-06T07:15:04.387Z,99582.31
2022-10-06T07:17:55.579Z,99579.91
2022-10-06T07:20:41.677Z,99583.13
2022-10-06T07:23:34.522Z,99592.13
2022-10-06T07:26:02.457Z,99588.97
2022-10-06T07:28:30.849Z,99587.66
2022-10-06T07:31:00.775Z,99588.16
2022-10-06T07:33:31.249Z,99592.19
2022-10-06T07:35:58.281Z,99598.03
2022-10-06T07:38:26.076Z,99604.38
2022-10-06T07:41:18.389Z,99600.88
2022-10-06T07:43:47.356Z,99607.78
2022-10-06T07:46:15.634Z,99602.69
2022-10-06T07:48:48.787Z,99610.38
2022-10-06T07:51:17.193Z,99610.41
2022-10-06T07:53:51.270Z,99620.63
2022-10-06T07:56:24.633Z,99622.63
2022-10-06T07:58:56.093Z,99619.41
2022-10-06T08:01:22.714Z,99630.09
2022-10-06T08:03:50.711Z,99622.91
2022-10-06T08:06:18.989Z,99626.63
2022-10-06T08:08:52.474Z,99625.66
2022-10-06T08:11:19.970Z,99632.81
2022-10-06T08:13:48.378Z,99637.66
2022-10-06T08:16:18.248Z,99642.53
2022-10-06T08:18:53.417Z,99645.03
2022-10-06T08:21:24.738Z,99644.53
2022-10-06T08:23:52.372Z,99641.84
2022-10-06T08:26:21.157Z,99648.38
2022-10-06T08:28:50.045Z,99645.38
2022-10-06T08:31:18.513Z,99657.06
2022-10-06T08:33:46.111Z,99660.41
2022-10-06T08:36:16.726Z,99654.88
2022-10-06T08:38:45.616Z,99664.88
2022-10-06T08:41:23.257Z,99664.59
2022-10-06T08:44:16.627Z,99655.06
2022-10-06T08:46:50.911Z,99665.59
2022-10-06T08:49:23.510Z,99670.75
2022-10-06T08:52:08.484Z,99679.31
2022-10-06T08:55:07.335Z,99681.50
2022-10-06T08:57:58.392Z,99681.97
2022-10-06T09:00:24.968Z,99686.28
2022-10-06T09:02:51.908Z,99688.31
2022-10-06T09:05:25.669Z,99685.97
2022-10-06T09:08:34.486Z,99685.66
2022-10-06T09:11:36.237Z,99685.97
2022-10-06T09:14:21.284Z,99691.84
2022-10-06T09:16:53.905Z,99691.31
2022-10-06T09:19:32.861Z,99692.31
2022-10-06T09:22:04.706Z,99695.50
2022-10-06T09:24:37.909Z,99694.47
2022-10-06T09:27:24.498Z,99701.00
2022-10-06T09:29:51.602Z,99698.66
2022-10-06T09:32:20.327Z,99699.16
2022-10-06T09:34:50.966Z,99697.44
2022-10-06T09:37:18.232Z,99698.13
2022-10-06T09:39:48.261Z,99698.38
2022-10-06T09:42:27.020Z,99700.31
2022-10-06T09:45:02.323Z,99702.41
2022-10-06T09:47:28.853Z,99707.50
2022-10-06T09:50:24.745Z,99707.66
2022-10-06T09:53:03.650Z,99711.59
2022-10-06T09:55:37.523Z,99704.22
2022-10-06T09:58:16.893Z,99721.50
2022-10-06T10:00:49.001Z,99716.34
2022-10-06T10:03:16.061Z,99712.38
2022-10-06T10:05:48.495Z,99722.47
2022-10-06T10:08:27.534Z,99723.00
2022-10-06T10:11:32.327Z,99723.00
2022-10-06T10:13:59.639Z,99715.69
2022-10-06T10:16:34.762Z,99713.72
2022-10-06T10:19:05.785Z,99716.25
2022-10-06T10:21:33.877Z,99712.84
2022-10-06T10:24:03.668Z,99719.47
2022-10-06T10:26:49.022Z,99717.75
2022-10-06T10:29:18.563Z,99715.78
2022-10-06T10:32:03.000Z,99714.03
2022-10-06T10:34:44.717Z,99699.75
2022-10-06T10:37:28.256Z,99708.34
2022-10-06T10:40:04.415Z,99717.22
2022-10-06T10:42:51.295Z,99712.88
2022-10-06T10:45:41.809Z,99714.44
2022-10-06T10:48:14.892Z,99704.78
2022-10-06T10:51:02.769Z,99711.69
2022-10-06T10:53:36.589Z,99696.63
2022-10-06T10:56:08.472Z,99698.41
2022-10-06T10:58:42.967Z,99699.53
2022-10-06T11:01:30.556Z,99698.72
2022-10-06T11:03:58.236Z,99698.72
2022-10-06T11:06:33.903Z,99701.44
2022-10-06T11:09:08.105Z,99690.50
2022-10-06T11:11:59.419Z,99699.50
2022-10-06T11:14:26.437Z,99693.59
2022-10-06T11:16:56.621Z,99698.00
2022-10-06T11:19:46.853Z,99699.28
2022-10-06T11:22:23.053Z,99701.06
2022-10-06T11:25:13.758Z,99692.72
2022-10-06T11:27:49.442Z,99694.75
2022-10-06T11:30:19.665Z,99688.97
2022-10-06T11:33:02.047Z,99699.19
2022-10-06T11:35:36.769Z,99696.50
2022-10-06T11:38:10.842Z,99693.16
2022-10-06T11:41:09.797Z,99688.72
2022-10-06T11:44:24.416Z,99691.78
2022-10-06T11:46:56.548Z,99690.22
2022-10-06T11:49:29.203Z,99682.31
2022-10-06T11:52:08.689Z,99685.06
2022-10-06T11:54:47.909Z,99680.78
2022-10-06T11:57:34.814Z,99676.00
2022-10-06T12:00:04.397Z,99676.25
2022-10-06T12:02:33.726Z,99678.91
2022-10-06T12:05:28.481Z,99680.84
2022-10-06T12:07:55.868Z,99673.53
2022-10-06T12:10:28.546Z,99679.09
2022-10-06T12:14:12.355Z,99675.38
2022-10-06T12:19:05.519Z,99675.59
2022-10-06T12:22:02.847Z,99665.50
2022-10-06T12:24:45.896Z,99667.00
2022-10-06T12:27:34.452Z,99666.19
2022-10-06T12:30:19.825Z,99669.69
2022-10-06T12:32:59.341Z,99662.56
2022-10-06T12:35:34.150Z,99664.13
2022-10-06T12:38:06.187Z,99667.75
2022-10-06T12:40:46.724Z,99665.81
2022-10-06T12:43:19.763Z,99662.44
2022-10-06T12:45:58.670Z,99658.16
2022-10-06T12:48:50.227Z,99662.47
2022-10-06T12:51:36.383Z,99664.78
2022-10-06T12:54:06.126Z,99658.66
2022-10-06T12:56:38.020Z,99665.38
2022-10-06T12:59:19.957Z,99663.72
2022-10-06T13:01:49.320Z,99659.84
2022-10-06T13:04:41.389Z,99661.88
2022-10-06T13:07:17.819Z,99660.06
2022-10-06T13:09:45.588Z,99653.03
2022-10-06T13:12:50.286Z,99652.59
2022-10-06T13:15:25.355Z,99651.06
2022-10-06T13:17:56.073Z,99655.22
2022-10-06T13:20:36.306Z,99657.69
2022-10-06T13:23:10.427Z,99653.81
2022-10-06T13:25:45.350Z,99653.63
2022-10-06T13:28:29.293Z,99648.47
2022-10-06T13:33:32.179Z,99639.91
2022-10-06T13:35:59.822Z,99648.50
2022-10-06T13:38:26.773Z,99646.47
2022-10-06T13:41:25.211Z,99637.91
2022-10-06T13:43:59.724Z,99642.72
2022-10-06T13:46:28.783Z,99641.09
2022-10-06T13:49:03.569Z,99637.97
2022-10-06T13:51:31.826Z,99636.78
2022-10-06T13:54:01.207Z,99640.41
2022-10-06T13:56:30.256Z,99634.63
2022-10-06T13:58:56.957Z,99637.25
2022-10-06T14:01:32.748Z,99629.09
2022-10-06T14:04:18.458Z,99634.63
2022-10-06T14:06:48.444Z,99632.91
2022-10-06T14:09:21.050Z,99629.16
2022-10-06T14:11:47.731Z,99626.94
2022-10-06T14:14:16.048Z,99625.59
2022-10-06T14:16:48.198Z,99621.88
2022-10-06T14:19:37.518Z,99622.47
2022-10-06T14:22:05.380Z,99619.97
2022-10-06T14:24:37.226Z,99619.25
2022-10-06T14:27:06.320Z,99619.81
2022-10-06T14:29:34.295Z,99616.44
2022-10-06T14:32:14.077Z,99617.81
2022-10-06T14:34:43.951Z,99622.16
2022-10-06T14:37:15.196Z,99621.19
2022-10-06T14:39:43.363Z,99622.19
2022-10-06T14:42:10.417Z,99612.31
2022-10-06T14:44:37.979Z,99613.84
2022-10-06T14:47:09.473Z,99619.19
2022-10-06T14:49:37.839Z,99608.50
2022-10-06T14:52:05.694Z,99611.84
2022-10-06T14:54:34.492Z,99606.94
2022-10-06T14:57:01.156Z,99608.13
2022-10-06T14:59:28.193Z,99607.50
2022-10-06T15:01:54.856Z,99597.72
2022-10-06T15:04:24.855Z,99595.75
2022-10-06T15:07:09.893Z,99599.94
2022-10-06T15:09:36.621Z,99601.50
2022-10-06T15:12:04.175Z,99596.69
2022-10-06T15:14:31.999Z,99595.19
2022-10-06T15:17:01.726Z,99599.50
2022-10-06T15:19:28.404Z,99595.69
2022-10-06T15:21:55.097Z,99594.63
2022-10-06T15:24:21.729Z,99591.25
2022-10-06T15:27:06.768Z,99595.78
2022-10-06T15:29:37.082Z,99588.09
2022-10-06T15:32:06.615Z,99591.63
2022-10-06T15:34:34.411Z,99583.09
2022-10-06T15:37:01.938Z,99590.94
2022-10-06T15:39:32.411Z,99594.13
2022-10-06T15:41:59.030Z,99594.00
2022-10-06T15:44:25.740Z,99585.81
2022-10-06T15:46:55.110Z,99590.00
2022-10-06T15:49:23.488Z,99590.50
2022-10-06T15:51:52.583Z,99589.69
2022-10-06T15:54:24.151Z,99585.34
2022-10-06T15:56:53.481Z,99585.19
2022-10-06T15:59:24.511Z,99580.34
2022-10-06T16:01:56.000Z,99586.88
2022-10-06T16:04:30.663Z,99592.22
2022-10-06T16:06:57.538Z,99587.06
2022-10-06T16:09:26.683Z,99589.91
2022-10-06T16:11:54.281Z,99586.06
2022-10-06T16:14:21.072Z,99580.03
2022-10-06T16:16:48.167Z,99585.06
2022-10-06T16:19:16.090Z,99584.88
2022-10-06T16:21:43.507Z,99588.72
2022-10-06T16:24:10.205Z,99588.38
2022-10-06T16:26:36.892Z,99586.38
2022-10-06T16:29:04.554Z,99590.06
2022-10-06T16:31:31.638Z,99584.38
2022-10-06T16:33:58.458Z,99581.34
2022-10-06T16:36:25.206Z,99589.41
2022-10-06T16:38:54.881Z,99588.72
2022-10-06T16:41:22.273Z,99589.06
2022-10-06T16:43:50.944Z,99590.19
2022-10-06T16:46:25.910Z,99590.50
2022-10-06T16:48:54.273Z,99585.13
2022-10-06T16:51:23.375Z,99591.63
2022-10-06T16:53:52.037Z,99598.59
2022-10-06T16:56:23.791Z,99602.25
2022-10-06T16:58:55.233Z,99600.22
2022-10-06T17:01:27.026Z,99600.03
2022-10-06T17:04:05.057Z,99597.84
2022-10-06T17:06:39.515Z,99603.81
2022-10-06T17:09:11.896Z,99613.47
2022-10-06T17:11:38.536Z,99602.09
2022-10-06T17:14:05.736Z,99607.75
2022-10-06T17:16:35.883Z,99602.75
2022-10-06T17:19:03.701Z,99605.41
2022-10-06T17:21:45.588Z,99602.09
2022-10-06T17:24:13.769Z,99596.78
2022-10-06T17:26:42.346Z,99594.66
2022-10-06T17:29:13.874Z,99603.19
2022-10-06T17:31:43.015Z,99600.03
2022-10-06T17:34:12.486Z,99595.06
2022-10-06T17:36:40.544Z,99602.88
2022-10-06T17:39:08.518Z,99609.59
2022-10-06T17:41:37.657Z,99611.94
2022-10-06T17:44:07.910Z,99611.94
2022-10-06T17:46:38.523Z,99606.44
2022-10-06T17:49:07.955Z,99615.13
2022-10-06T17:51:36.567Z,99609.28
2022-10-06T17:54:05.274Z,99607.28
2022-10-06T17:56:34.581Z,99611.66
2022-10-06T17:59:07.420Z,99604.00
2022-10-06T18:01:35.791Z,99614.50
2022-10-06T18:04:05.510Z,99606.81
2022-10-06T18:06:34.535Z,99608.81
2022-10-06T18:09:02.968Z,99607.66
2022-10-06T18:11:33.933Z,99605.16
2022-10-06T18:14:12.453Z,99604.13
2022-10-06T18:16:45.519Z,99600.94
2022-10-06T18:19:16.745Z,99606.63
2022-10-06T18:21:45.838Z,99607.16
2022-10-06T18:24:21.130Z,99602.63
2022-10-06T18:26:49.439Z,99604.75
2022-10-06T18:29:17.707Z,99602.28
2022-10-06T18:31:45.239Z,99605.59
2022-10-06T18:37:01.864Z,99605.72
2022-10-06T18:39:31.418Z,99609.22
2022-10-06T18:42:02.762Z,99600.53
2022-10-06T18:44:48.578Z,99599.16
2022-10-06T18:47:34.125Z,99608.81
2022-10-06T18:50:00.856Z,99614.25
2022-10-06T18:52:28.501Z,99609.38
2022-10-06T18:54:55.132Z,99600.72
2022-10-06T18:57:27.444Z,99595.47
2022-10-06T18:59:55.264Z,99605.91
2022-10-06T19:02:24.602Z,99609.91
2022-10-06T19:04:54.467Z,99610.38
2022-10-06T19:07:21.365Z,99611.84
2022-10-06T19:09:50.355Z,99603.28
2022-10-06T19:12:17.029Z,99608.22
2022-10-06T19:14:47.796Z,99617.38
2022-10-06T19:17:15.375Z,99602.84
2022-10-06T19:19:43.807Z,99605.13
2022-10-06T19:22:12.203Z,99607.81
2022-10-06T19:24:40.903Z,99604.97
2022-10-06T19:27:15.914Z,99609.09
2022-10-06T19:29:46.103Z,99601.16
2022-10-06T19:32:19.400Z,99604.84
2022-10-06T19:34:47.070Z,99605.66
2022-10-06T19:37:14.392Z,99610.31
2022-10-06T19:39:43.487Z,99603.31
2022-10-06T19:42:34.257Z,99604.47
2022-10-06T19:45:01.030Z,99606.50
2022-10-06T19:47:29.061Z,99610.91
2022-10-06T19:50:00.871Z,99612.97
2022-10-06T19:52:31.266Z,99609.31
2022-10-06T19:54:58.067Z,99614.66
2022-10-06T19:57:25.219Z,99613.66
2022-10-06T19:59:51.961Z,99613.34
2022-10-06T20:02:18.605Z,99616.06
2022-10-06T20:04:45.506Z,99605.38
2022-10-06T20:07:12.368Z,99612.56
2022-10-06T20:09:39.087Z,99610.72
2022-10-06T20:12:05.998Z,99603.72
2022-10-06T20:14:32.741Z,99604.56
2022-10-06T20:16:59.511Z,99603.34
2022-10-06T20:19:26.142Z,99600.47
2022-10-06T20:21:53.135Z,99608.94
2022-10-06T20:24:24.753Z,99596.06
2022-10-06T20:26:52.582Z,99601.34
2022-10-06T20:29:25.204Z,99602.63
2022-10-06T20:31:54.080Z,99601.78
2022-10-06T20:34:24.830Z,99595.47
2022-10-06T20:36:55.852Z,99606.28
2022-10-06T20:39:42.090Z,99603.94
2022-10-06T20:42:14.946Z,99606.06
2022-10-06T20:44:42.699Z,99600.19
2022-10-06T20:47:10.655Z,99599.38
2022-10-06T20:49:37.484Z,99602.69
2022-10-06T20:52:05.125Z,99601.88
2022-10-06T20:54:35.150Z,99601.03
2022-10-06T20:57:03.920Z,99594.69
2022-10-06T20:59:31.243Z,99594.69
2022-10-06T21:02:00.763Z,99594.69
2022-10-06T21:04:27.842Z,99604.22
2022-10-06T21:06:54.813Z,99600.41
2022-10-06T21:09:21.808Z,99597.47
2022-10-06T21:11:48.770Z,99600.13
2022-10-06T21:14:16.081Z,99595.94
2022-10-06T21:16:44.885Z,99591.28
2022-10-06T21:19:14.392Z,99590.44
2022-10-06T21:21:42.973Z,99590.31
2022-10-06T21:24:10.442Z,99587.25
2022-10-06T21:26:38.940Z,99584.75
2022-10-06T21:29:06.543Z,99579.72
2022-10-06T21:31:33.533Z,99578.72
2022-10-06T21:34:01.574Z,99572.25
2022-10-06T21:36:31.507Z,99563.28
2022-10-06T21:39:00.193Z,99565.25
2022-10-06T21:41:32.579Z,99574.63
2022-10-06T21:44:01.979Z,99563.28
2022-10-06T21:46:37.610Z,99567.59
2022-10-06T21:49:06.416Z,99563.09
2022-10-06T21:51:34.028Z,99561.75
2022-10-06T21:54:01.106Z,99560.06
2022-10-06T21:56:30.491Z,99561.59
2022-10-06T21:58:58.206Z,99554.47
2022-10-06T22:01:33.164Z,99547.97
2022-10-06T22:04:00.538Z,99551.47
2022-10-06T22:06:28.422Z,99545.78
2022-10-06T22:08:56.327Z,99545.31
2022-10-06T22:11:31.651Z,99534.66
2022-10-06T22:14:00.650Z,99541.50
2022-10-06T22:16:30.021Z,99541.50
2022-10-06T22:18:56.821Z,99538.84
2022-10-06T22:21:31.536Z,99539.50
2022-10-06T22:24:03.617Z,99540.66
2022-10-06T22:26:32.138Z,99534.81
2022-10-06T22:28:59.959Z,99538.75
2022-10-06T22:31:28.028Z,99538.41
2022-10-06T22:33:57.021Z,99536.72
2022-10-06T22:36:24.471Z,99533.84
2022-10-06T22:38:51.524Z,99536.66
2022-10-06T22:41:18.762Z,99534.63
2022-10-06T22:43:45.821Z,99537.03
2022-10-06T22:46:13.293Z,99535.78
2022-10-06T22:48:40.792Z,99524.31
2022-10-06T22:51:07.953Z,99522.78
2022-10-06T22:53:35.107Z,99514.72
2022-10-06T22:56:02.758Z,99515.19
2022-10-06T22:58:29.790Z,99515.25
2022-10-06T23:00:56.742Z,99510.84
2022-10-06T23:03:24.367Z,99502.59
2022-10-06T23:05:59.797Z,99506.88
2022-10-06T23:08:31.378Z,99500.59
2022-10-06T23:11:16.679Z,99495.19
2022-10-06T23:13:43.558Z,99492.88
2022-10-06T23:16:12.391Z,99489.56
2022-10-06T23:18:40.784Z,99486.22
2022-10-06T23:21:27.888Z,99478.66
2022-10-06T23:23:57.067Z,99479.94
2022-10-06T23:26:24.018Z,99483.28
2022-10-06T23:28:56.552Z,99475.41
2022-10-06T23:31:23.581Z,99475.97
2022-10-06T23:33:50.603Z,99470.78
2022-10-06T23:36:18.137Z,99475.13
2022-10-06T23:38:45.681Z,99471.47
2022-10-06T23:41:12.941Z,99479.47
2022-10-06T23:43:39.906Z,99471.78
2022-10-06T23:46:06.885Z,99470.09
2022-10-06T23:48:33.783Z,99472.00
2022-10-06T23:51:02.146Z,99479.25
2022-10-06T23:53:30.144Z,99475.44
2022-10-06T23:55:57.323Z,99470.81
2022-10-06T23:58:24.275Z,99473.19
